Time;durP1;ratioP1;P1;durP2;ratioP2;P2;SDS_P1;SDS_P2;PMS_P1;PMS_P2;Temp;Humidity;BMP_temperature;BMP_pressure;BME280_temperature;BME280_humidity;BME280_pressure;Samples;Min_cycle;Max_cycle;Signal;HPM_P1;HPM_P2
2022/04/21 00:00:43;;;;;;;6.75;2.42;;;10.40;69.80;;;;;;4955602;28;20039;-71
2022/04/21 00:03:09;;;;;;;6.18;2.10;;;10.40;70.10;;;;;;4956008;28;20026;-70
2022/04/21 00:05:36;;;;;;;6.05;2.10;;;10.40;70.60;;;;;;4954529;28;20027;-71
2022/04/21 00:08:03;;;;;;;6.43;2.13;;;10.40;70.80;;;;;;4954109;28;20145;-71
2022/04/21 00:10:30;;;;;;;4.88;1.92;;;10.40;71.00;;;;;;4955382;28;20035;-70
2022/04/21 00:12:56;;;;;;;12.25;2.55;;;10.40;71.10;;;;;;4957254;28;20026;-71
2022/04/21 00:15:23;;;;;;;6.28;2.45;;;10.40;71.30;;;;;;4953641;28;20027;-71
2022/04/21 00:17:48;;;;;;;2.67;1.80;;;10.40;71.10;;;;;;4952474;28;20145;-71
2022/04/21 00:20:14;;;;;;;5.53;2.15;;;10.40;70.80;;;;;;4959141;28;20035;-71
2022/04/21 00:25:28;;;;;;;5.03;1.85;;;10.40;71.90;;;;;;4956355;28;20031;-70
2022/04/21 00:27:55;;;;;;;3.88;2.55;;;10.30;71.70;;;;;;4957175;28;20154;-71
2022/04/21 00:30:21;;;;;;;4.75;2.20;;;10.40;72.40;;;;;;4957322;28;20038;-70
2022/04/21 00:32:47;;;;;;;4.20;1.88;;;10.30;72.70;;;;;;4958299;28;20030;-70
2022/04/21 00:35:14;;;;;;;4.13;1.80;;;10.40;72.70;;;;;;4959366;28;20031;-71
2022/04/21 00:37:49;;;;;;;5.70;1.95;;;10.30;72.70;;;;;;4952182;28;20117;-70
2022/04/21 00:40:18;;;;;;;3.92;2.10;;;10.30;72.40;;;;;;4956072;28;20123;-70
2022/04/21 00:42:44;;;;;;;3.65;1.63;;;10.30;72.70;;;;;;4939481;28;20407;-70
2022/04/21 00:45:11;;;;;;;6.80;2.05;;;10.30;72.40;;;;;;4938995;28;20039;-70
2022/04/21 00:47:42;;;;;;;8.75;2.30;;;10.30;72.90;;;;;;4951171;28;20034;-71
2022/04/21 00:50:15;;;;;;;3.58;1.90;;;10.30;73.30;;;;;;4956438;28;20026;-70
2022/04/21 00:52:41;;;;;;;6.43;2.15;;;10.30;73.40;;;;;;4956326;28;20057;-70
2022/04/21 00:55:08;;;;;;;6.07;2.30;;;10.30;73.60;;;;;;4950842;28;20728;-70
2022/04/21 00:57:34;;;;;;;7.32;1.92;;;10.30;73.40;;;;;;4959586;28;20042;-70
2022/04/21 01:00:02;;;;;;;7.65;2.25;;;10.30;73.70;;;;;;4958709;28;20042;-70
2022/04/21 01:02:47;;;;;;;4.38;2.38;;;10.20;73.50;;;;;;4958063;28;20038;-70
2022/04/21 01:05:20;;;;;;;10.30;3.42;;;10.20;74.20;;;;;;4955055;28;20394;-70
2022/04/21 01:07:46;;;;;;;8.57;3.17;;;10.30;73.60;;;;;;4955847;28;20959;-71
2022/04/21 01:10:12;;;;;;;6.13;2.50;;;10.20;73.90;;;;;;4951890;28;20031;-70
2022/04/21 01:12:40;;;;;;;4.13;2.50;;;10.20;75.30;;;;;;4953263;28;20029;-70
2022/04/21 01:15:06;;;;;;;6.65;2.38;;;10.20;75.10;;;;;;4952656;28;20035;-70
2022/04/21 01:17:37;;;;;;;3.83;2.30;;;10.10;75.30;;;;;;4959026;28;20518;-70
2022/04/21 01:20:05;;;;;;;6.30;2.05;;;10.10;75.00;;;;;;4954261;28;20030;-70
2022/04/21 01:22:31;;;;;;;7.60;2.60;;;10.10;75.10;;;;;;4955112;28;20535;-70
2022/04/21 01:24:57;;;;;;;6.60;2.35;;;10.00;75.30;;;;;;4951132;28;20031;-70
2022/04/21 01:27:27;;;;;;;5.32;2.17;;;10.00;75.20;;;;;;4954261;28;20700;-70
2022/04/21 01:29:53;;;;;;;5.95;3.00;;;10.00;75.40;;;;;;4952349;28;20022;-70
2022/04/21 01:32:19;;;;;;;6.38;3.08;;;10.00;75.70;;;;;;4952316;28;20689;-71
2022/04/21 01:34:44;;;;;;;4.57;2.00;;;10.00;76.00;;;;;;4954139;28;20038;-70
2022/04/21 01:42:39;;;;;;;4.50;2.13;;;9.80;77.10;;;;;;4953071;28;20735;-70
2022/04/21 01:45:05;;;;;;;6.13;2.20;;;9.70;77.60;;;;;;4954623;28;20042;-70
2022/04/21 01:47:31;;;;;;;3.88;2.30;;;9.60;77.80;;;;;;4955371;28;20162;-70
2022/04/21 01:49:57;;;;;;;6.18;3.03;;;9.50;78.10;;;;;;4952601;28;20510;-70
2022/04/21 01:52:22;;;;;;;9.10;2.53;;;9.50;78.80;;;;;;4936404;28;20030;-70
2022/04/21 01:54:50;;;;;;;5.82;2.42;;;9.40;79.30;;;;;;4954332;28;20031;-71
2022/04/21 01:57:18;;;;;;;5.15;2.58;;;9.40;79.50;;;;;;4953191;28;20035;-70
2022/04/21 01:59:44;;;;;;;8.35;2.70;;;9.40;79.20;;;;;;4955030;28;20034;-70
2022/04/21 02:02:10;;;;;;;5.80;2.55;;;9.30;79.20;;;;;;4955481;28;20038;-70
2022/04/21 02:04:35;;;;;;;5.63;2.30;;;9.40;78.90;;;;;;4955609;28;20031;-70
2022/04/21 02:07:04;;;;;;;8.07;2.78;;;9.40;79.20;;;;;;4952223;28;20069;-70
2022/04/21 02:09:30;;;;;;;6.93;2.70;;;9.30;79.60;;;;;;4949518;28;20066;-70
2022/04/21 02:11:56;;;;;;;5.60;2.85;;;9.30;79.90;;;;;;4952238;28;20068;-70
2022/04/21 02:14:22;;;;;;;5.28;2.53;;;9.30;80.00;;;;;;4942541;28;20034;-70
2022/04/21 02:16:47;;;;;;;9.52;2.50;;;9.40;79.90;;;;;;4958203;28;20039;-70
2022/04/21 02:19:13;;;;;;;5.97;2.55;;;9.40;80.20;;;;;;4956397;28;20034;-70
2022/04/21 02:21:39;;;;;;;12.07;2.78;;;9.30;80.10;;;;;;4959368;28;20043;-70
2022/04/21 02:24:05;;;;;;;7.75;3.40;;;9.30;80.40;;;;;;4957578;28;20862;-70
2022/04/21 02:26:31;;;;;;;5.22;2.80;;;9.30;80.50;;;;;;4960134;28;20058;-70
2022/04/21 02:28:57;;;;;;;5.90;3.05;;;9.40;80.60;;;;;;4935829;28;20531;-70
2022/04/21 02:31:22;;;;;;;5.13;2.78;;;9.40;80.80;;;;;;4957110;28;20106;-70
2022/04/21 02:33:48;;;;;;;5.70;2.85;;;9.40;80.90;;;;;;4962491;28;20387;-70
2022/04/21 02:36:14;;;;;;;5.75;2.83;;;9.40;80.80;;;;;;4959080;28;20154;-70
2022/04/21 02:38:39;;;;;;;5.65;2.30;;;9.50;80.50;;;;;;4958101;28;20132;-70
2022/04/21 02:41:06;;;;;;;5.25;2.55;;;9.40;81.00;;;;;;4957795;28;20066;-70
2022/04/21 02:43:32;;;;;;;9.20;3.20;;;9.50;80.70;;;;;;4958616;28;20034;-70
2022/04/21 02:45:58;;;;;;;4.78;2.88;;;9.50;80.60;;;;;;4938210;28;20239;-70
2022/04/21 02:48:24;;;;;;;9.77;2.70;;;9.50;80.40;;;;;;4949805;28;20034;-70
2022/04/21 02:50:50;;;;;;;5.10;2.67;;;9.50;80.90;;;;;;4960269;28;20505;-70
2022/04/21 02:53:18;;;;;;;4.78;3.13;;;9.40;81.10;;;;;;4959630;28;20050;-70
2022/04/21 02:58:28;;;;;;;6.93;3.30;;;9.40;81.40;;;;;;4956169;28;20165;-70
2022/04/21 03:00:54;;;;;;;8.32;2.70;;;9.40;81.20;;;;;;4957571;28;20038;-70
2022/04/21 03:03:20;;;;;;;7.53;3.10;;;9.50;81.30;;;;;;4960875;28;20045;-71
2022/04/21 03:05:45;;;;;;;7.32;3.15;;;9.50;81.00;;;;;;4960871;28;20039;-70
2022/04/21 03:08:11;;;;;;;9.45;3.17;;;9.50;81.10;;;;;;4957386;28;20409;-70
2022/04/21 03:10:37;;;;;;;6.55;3.28;;;9.50;81.00;;;;;;4959699;28;20031;-70
2022/04/21 03:13:02;;;;;;;6.97;3.15;;;9.50;81.40;;;;;;4959492;28;20058;-70
2022/04/21 03:15:28;;;;;;;8.48;3.50;;;9.50;81.40;;;;;;4956849;28;20121;-70
2022/04/21 03:17:54;;;;;;;15.15;3.55;;;9.50;81.70;;;;;;4958918;28;20038;-70
2022/04/21 03:25:49;;;;;;;5.45;2.83;;;9.50;81.80;;;;;;4954216;28;20047;-70
2022/04/21 03:28:14;;;;;;;6.68;3.05;;;9.50;81.50;;;;;;4959118;28;20039;-70
2022/04/21 03:30:40;;;;;;;7.53;2.95;;;9.50;81.80;;;;;;4957784;28;20031;-71
2022/04/21 03:33:06;;;;;;;9.52;3.13;;;9.50;81.80;;;;;;4957692;28;20027;-70
2022/04/21 03:35:33;;;;;;;7.35;3.25;;;9.50;81.80;;;;;;4959089;28;20069;-70
2022/04/21 03:37:59;;;;;;;8.23;3.50;;;9.40;81.60;;;;;;4959758;28;20035;-71
2022/04/21 03:40:25;;;;;;;5.70;3.00;;;9.50;81.80;;;;;;4957454;28;20035;-70
2022/04/21 03:42:50;;;;;;;6.20;3.90;;;9.40;81.90;;;;;;4961234;28;20545;-70
2022/04/21 03:45:16;;;;;;;9.13;3.90;;;9.40;82.10;;;;;;4959865;28;20498;-70
2022/04/21 03:47:41;;;;;;;10.57;3.95;;;9.40;82.30;;;;;;4959549;28;20637;-70
2022/04/21 03:50:08;;;;;;;6.53;2.92;;;9.40;82.40;;;;;;4962302;28;20034;-70
2022/04/21 03:52:34;;;;;;;6.78;3.03;;;9.40;82.60;;;;;;4959560;28;20034;-70
2022/04/21 03:55:00;;;;;;;9.20;3.30;;;9.40;83.00;;;;;;4957814;28;20038;-70
2022/04/21 03:57:27;;;;;;;7.65;3.05;;;9.40;83.00;;;;;;4957803;28;20057;-70
2022/04/21 03:59:53;;;;;;;8.30;2.80;;;9.40;83.10;;;;;;4951626;28;20038;-70
2022/04/21 04:02:18;;;;;;;10.38;3.40;;;9.40;82.80;;;;;;4958827;28;20053;-70
2022/04/21 04:04:44;;;;;;;8.93;3.67;;;9.40;83.00;;;;;;4954069;28;20054;-70
2022/04/21 04:12:59;;;;;;;8.52;3.05;;;9.40;83.40;;;;;;4902180;29;20036;-70
2022/04/21 04:15:24;;;;;;;9.02;3.20;;;9.40;83.70;;;;;;4935350;28;20050;-70
2022/04/21 04:17:50;;;;;;;6.93;3.55;;;9.30;84.00;;;;;;4954691;28;20069;-70
2022/04/21 04:20:16;;;;;;;8.98;3.60;;;9.30;84.40;;;;;;4958691;28;20035;-70
2022/04/21 04:22:42;;;;;;;7.45;3.75;;;9.30;84.80;;;;;;4958302;28;20422;-70
2022/04/21 04:25:11;;;;;;;15.43;4.85;;;9.30;85.20;;;;;;4957430;28;20093;-70
2022/04/21 04:27:37;;;;;;;14.20;6.80;;;9.30;85.20;;;;;;4959201;28;20053;-70
2022/04/21 04:30:05;;;;;;;6.97;3.75;;;9.40;85.60;;;;;;4953806;28;20019;-70
2022/04/21 04:32:31;;;;;;;6.60;3.72;;;9.30;85.80;;;;;;4960814;28;20138;-70
2022/04/21 04:34:57;;;;;;;10.93;4.15;;;9.30;86.60;;;;;;4957909;28;20165;-69
2022/04/21 04:37:23;;;;;;;7.93;4.05;;;9.30;87.20;;;;;;4954565;28;20491;-70
2022/04/21 04:39:48;;;;;;;7.75;3.80;;;9.30;87.30;;;;;;4955780;28;20145;-70
2022/04/21 04:42:17;;;;;;;8.48;4.15;;;9.30;87.70;;;;;;4954327;28;20022;-70
2022/04/21 04:46:34;;;;;;;9.20;4.32;;;9.20;87.80;;;;;;4958681;28;20399;-70
2022/04/21 04:47:35;;;;;;;8.88;3.58;;;9.20;88.00;;;;;;4959682;28;20046;-70
2022/04/21 04:50:01;;;;;;;9.07;4.00;;;9.30;88.40;;;;;;4949634;28;20195;-70
2022/04/21 04:52:27;;;;;;;7.20;3.60;;;9.30;88.00;;;;;;4956998;28;20062;-70
2022/04/21 04:54:53;;;;;;;10.00;3.60;;;9.40;88.00;;;;;;4956057;28;20031;-70
2022/04/21 04:57:18;;;;;;;9.98;3.58;;;9.40;88.10;;;;;;4954943;28;20118;-70
2022/04/21 04:59:44;;;;;;;7.57;3.63;;;9.50;87.90;;;;;;4956067;28;20078;-70
2022/04/21 05:02:09;;;;;;;14.82;4.00;;;9.50;87.80;;;;;;4957945;28;20054;-71
2022/04/21 05:04:36;;;;;;;7.53;4.00;;;9.50;87.50;;;;;;4954950;28;20042;-71
2022/04/21 05:07:02;;;;;;;10.77;4.28;;;9.60;87.20;;;;;;4958650;28;20084;-71
2022/04/21 05:09:27;;;;;;;6.32;3.65;;;9.60;87.10;;;;;;4957621;28;20411;-71
2022/04/21 05:11:55;;;;;;;8.27;3.50;;;9.60;87.20;;;;;;4958599;28;20439;-70
2022/04/21 05:14:22;;;;;;;10.30;3.75;;;9.70;87.00;;;;;;4958012;28;20038;-71
2022/04/21 05:16:48;;;;;;;8.48;4.25;;;9.70;86.40;;;;;;4953644;28;20027;-71
2022/04/21 05:19:16;;;;;;;9.50;4.50;;;9.80;87.30;;;;;;4959387;28;20093;-71
2022/04/21 05:21:43;;;;;;;7.78;3.78;;;9.80;86.50;;;;;;4955713;28;20082;-71
2022/04/21 05:24:10;;;;;;;6.35;3.70;;;9.80;86.30;;;;;;4941872;28;20042;-71
2022/04/21 05:26:40;;;;;;;9.27;4.10;;;9.70;86.60;;;;;;4959849;28;20169;-70
2022/04/21 05:31:58;;;;;;;11.73;4.80;;;9.70;86.90;;;;;;4955134;28;20096;-71
2022/04/21 05:34:26;;;;;;;7.20;3.85;;;9.80;87.30;;;;;;4953833;28;20030;-71
2022/04/21 05:36:52;;;;;;;8.90;4.28;;;9.80;87.10;;;;;;4956827;28;20031;-70
2022/04/21 05:39:18;;;;;;;15.70;4.88;;;9.90;87.00;;;;;;4959610;28;20027;-71
2022/04/21 05:41:44;;;;;;;9.85;4.25;;;10.00;87.00;;;;;;4956261;28;20045;-71
2022/04/21 05:44:11;;;;;;;9.00;4.07;;;10.10;87.10;;;;;;4936111;28;20034;-71
2022/04/21 05:46:37;;;;;;;9.95;4.00;;;10.20;86.40;;;;;;4950760;28;20043;-71
2022/04/21 05:49:03;;;;;;;11.70;4.10;;;10.30;85.70;;;;;;4955226;28;20041;-71
2022/04/21 05:51:30;;;;;;;9.32;4.30;;;10.40;85.40;;;;;;4959151;28;20041;-71
2022/04/21 05:53:58;;;;;;;12.05;4.32;;;10.50;85.10;;;;;;4956538;28;20042;-70
2022/04/21 05:56:24;;;;;;;12.60;4.45;;;10.60;84.90;;;;;;4951244;28;20038;-70
2022/04/21 05:58:53;;;;;;;11.30;4.43;;;10.70;84.20;;;;;;4959185;28;20055;-70
2022/04/21 06:01:19;;;;;;;7.43;3.67;;;10.90;84.20;;;;;;4960515;28;20037;-71
2022/04/21 06:03:45;;;;;;;10.30;4.20;;;11.20;83.70;;;;;;4957825;28;20031;-70
2022/04/21 06:06:10;;;;;;;8.02;3.75;;;11.50;82.20;;;;;;4945552;28;20027;-71
2022/04/21 06:08:37;;;;;;;8.63;3.55;;;11.70;81.00;;;;;;4960989;28;20065;-70
2022/04/21 06:11:04;;;;;;;8.07;3.63;;;11.80;80.10;;;;;;4958622;28;20053;-70
2022/04/21 06:13:31;;;;;;;11.32;3.25;;;11.90;80.20;;;;;;4960511;28;20042;-70
2022/04/21 06:15:57;;;;;;;8.05;3.63;;;12.00;79.40;;;;;;4956865;28;20840;-70
2022/04/21 06:18:24;;;;;;;8.27;3.83;;;12.00;80.00;;;;;;4961962;28;20483;-71
2022/04/21 06:20:51;;;;;;;9.25;4.05;;;12.00;80.00;;;;;;4957756;28;20540;-71
2022/04/21 06:23:17;;;;;;;7.50;3.90;;;12.00;80.80;;;;;;4961000;28;20530;-71
2022/04/21 06:25:43;;;;;;;8.43;3.50;;;11.90;79.40;;;;;;4962191;28;20046;-70
2022/04/21 06:28:10;;;;;;;8.68;3.65;;;12.00;79.00;;;;;;4959249;28;20043;-70
2022/04/21 06:30:37;;;;;;;7.78;3.60;;;12.00;78.40;;;;;;4960019;28;20148;-71
2022/04/21 06:33:02;;;;;;;10.13;3.72;;;12.10;77.90;;;;;;4959840;28;20394;-71
2022/04/21 06:35:28;;;;;;;7.00;3.60;;;12.20;77.20;;;;;;4962668;28;20030;-70
2022/04/21 06:37:55;;;;;;;8.25;3.03;;;12.30;77.00;;;;;;4958425;28;20039;-71
2022/04/21 06:40:21;;;;;;;14.13;3.72;;;12.20;77.50;;;;;;4954841;28;20564;-70
2022/04/21 06:42:47;;;;;;;10.05;3.88;;;12.10;77.60;;;;;;4959554;28;20486;-71
2022/04/21 06:48:08;;;;;;;13.43;4.03;;;12.00;78.00;;;;;;4960757;28;20110;-71
2022/04/21 06:50:39;;;;;;;10.68;3.67;;;12.00;78.00;;;;;;4960032;28;20121;-71
2022/04/21 06:53:07;;;;;;;10.48;3.30;;;11.90;77.10;;;;;;4960242;28;20035;-71
2022/04/21 06:55:34;;;;;;;7.55;3.90;;;11.90;78.10;;;;;;4962872;28;20034;-71
2022/04/21 06:58:00;;;;;;;9.13;3.53;;;11.90;78.20;;;;;;4958994;28;20038;-71
2022/04/21 07:00:27;;;;;;;10.45;3.70;;;11.90;77.70;;;;;;4957870;28;20049;-70
2022/04/21 07:02:55;;;;;;;7.68;3.75;;;12.00;77.00;;;;;;4961292;28;20031;-71
2022/04/21 07:05:22;;;;;;;10.68;3.80;;;12.10;77.10;;;;;;4962425;28;20035;-71
2022/04/21 07:07:49;;;;;;;9.48;4.05;;;12.20;77.40;;;;;;4956403;28;20046;-71
2022/04/21 07:10:15;;;;;;;6.40;3.35;;;12.20;76.60;;;;;;4955580;28;20026;-71
2022/04/21 07:12:41;;;;;;;9.48;3.85;;;12.20;76.60;;;;;;4960964;28;20026;-71
2022/04/21 07:15:09;;;;;;;10.55;3.92;;;12.30;76.50;;;;;;4961617;28;20105;-71
2022/04/21 07:17:36;;;;;;;8.65;3.80;;;12.40;76.70;;;;;;4961696;28;20038;-71
2022/04/21 07:20:03;;;;;;;7.30;3.58;;;12.50;76.00;;;;;;4959935;28;20401;-71
2022/04/21 07:22:29;;;;;;;10.63;3.88;;;12.60;75.30;;;;;;4959553;28;20038;-71
2022/04/21 07:24:56;;;;;;;7.45;3.33;;;12.80;75.50;;;;;;4955897;28;20027;-71
2022/04/21 07:27:24;;;;;;;12.65;3.85;;;12.90;74.90;;;;;;4954618;28;20031;-72
2022/04/21 07:29:50;;;;;;;10.45;4.07;;;12.80;73.70;;;;;;4956299;28;20042;-71
2022/04/21 07:32:17;;;;;;;7.68;3.47;;;12.80;73.70;;;;;;4958945;28;20474;-71
2022/04/21 07:34:43;;;;;;;10.52;3.70;;;12.90;73.60;;;;;;4960711;28;20031;-71
2022/04/21 07:37:09;;;;;;;10.45;3.60;;;13.00;74.10;;;;;;4956146;28;20071;-71
2022/04/21 07:39:42;;;;;;;7.55;3.13;;;13.10;73.20;;;;;;4958135;28;20038;-71
2022/04/21 07:42:12;;;;;;;13.57;4.43;;;13.30;73.00;;;;;;4958662;28;20042;-71
2022/04/21 07:44:38;;;;;;;8.57;3.47;;;13.50;71.90;;;;;;4957089;28;20138;-71
2022/04/21 07:47:05;;;;;;;7.63;3.63;;;13.70;71.70;;;;;;4958449;28;20031;-72
2022/04/21 07:49:47;;;;;;;6.68;4.22;;;13.80;70.90;;;;;;4955820;28;20066;-71
2022/04/21 07:55:16;;;;;;;7.07;3.60;;;14.10;70.00;;;;;;4957252;28;20042;-71
2022/04/21 07:57:43;;;;;;;11.48;3.70;;;14.10;68.50;;;;;;4961232;28;20110;-71
2022/04/21 08:00:10;;;;;;;4.97;3.47;;;14.00;69.30;;;;;;4960240;28;20033;-71
2022/04/21 08:02:43;;;;;;;6.25;3.22;;;13.90;70.60;;;;;;4957801;28;20038;-71
2022/04/21 08:05:12;;;;;;;11.95;3.85;;;13.80;71.00;;;;;;4959690;28;20097;-70
2022/04/21 08:07:38;;;;;;;8.43;3.67;;;13.60;71.40;;;;;;4953185;28;20041;-71
2022/04/21 08:10:06;;;;;;;8.32;3.25;;;13.50;71.10;;;;;;4961255;28;20033;-71
2022/04/21 08:12:43;;;;;;;7.22;3.42;;;13.40;72.20;;;;;;4961684;28;20078;-71
2022/04/21 08:15:11;;;;;;;6.35;3.53;;;13.50;72.50;;;;;;4954681;28;20038;-71
2022/04/21 08:17:38;;;;;;;12.45;4.20;;;13.70;71.80;;;;;;4945092;28;20027;-71
2022/04/21 08:20:08;;;;;;;11.63;4.45;;;13.90;71.20;;;;;;4957344;28;20026;-71
2022/04/21 08:22:35;;;;;;;8.55;3.45;;;13.90;70.80;;;;;;4954890;28;20819;-71
2022/04/21 08:33:16;;;;;;;7.93;3.40;;;13.70;73.20;;;;;;4959577;28;20030;-71
2022/04/21 08:35:44;;;;;;;7.00;3.78;;;13.80;73.10;;;;;;4955773;28;20051;-71
2022/04/21 08:38:10;;;;;;;12.32;4.30;;;13.70;72.20;;;;;;4957948;28;20039;-71
2022/04/21 08:40:51;;;;;;;8.73;4.07;;;13.70;72.60;;;;;;4952875;28;20756;-70
2022/04/21 08:43:17;;;;;;;13.98;3.67;;;13.60;73.00;;;;;;4960641;28;20031;-66
2022/04/21 08:45:45;;;;;;;14.18;4.43;;;13.60;73.00;;;;;;4958006;28;20101;-71
2022/04/21 08:48:16;;;;;;;11.40;3.83;;;13.60;73.20;;;;;;4960850;28;20683;-71
2022/04/21 08:50:42;;;;;;;15.05;4.05;;;13.70;72.40;;;;;;4958078;28;20110;-71
2022/04/21 08:53:10;;;;;;;6.85;3.33;;;13.90;70.80;;;;;;4959376;28;20038;-71
2022/04/21 08:55:36;;;;;;;8.13;3.55;;;14.00;70.20;;;;;;4957153;28;20034;-71
2022/04/21 08:58:03;;;;;;;7.18;3.65;;;13.90;70.20;;;;;;4961161;28;20418;-72
2022/04/21 09:00:31;;;;;;;8.32;3.25;;;13.90;69.50;;;;;;4953824;28;20039;-71
2022/04/21 09:02:58;;;;;;;7.93;3.33;;;14.00;70.30;;;;;;4962478;28;20379;-72
2022/04/21 09:05:28;;;;;;;7.10;3.25;;;14.10;69.50;;;;;;4953247;28;20654;-71
2022/04/21 09:07:54;;;;;;;5.93;3.08;;;14.30;69.20;;;;;;4953343;28;20046;-71
2022/04/21 09:10:20;;;;;;;9.27;4.25;;;14.50;69.10;;;;;;4958323;28;20029;-72
2022/04/21 09:12:50;;;;;;;9.40;4.00;;;14.90;67.90;;;;;;4941794;28;20053;-71
2022/04/21 09:15:17;;;;;;;8.90;4.10;;;15.20;66.80;;;;;;4952268;28;20175;-71
2022/04/21 09:17:52;;;;;;;8.82;3.88;;;15.30;66.10;;;;;;4956477;28;20049;-71
2022/04/21 09:20:20;;;;;;;7.28;3.80;;;15.50;65.00;;;;;;4960704;28;20031;-72
2022/04/21 09:22:56;;;;;;;9.85;3.83;;;15.30;64.50;;;;;;4955196;28;20790;-71
2022/04/21 09:25:31;;;;;;;10.25;3.83;;;15.20;64.60;;;;;;4957404;28;20812;-72
2022/04/21 09:27:57;;;;;;;6.30;3.50;;;15.20;65.90;;;;;;4954302;28;20062;-73
2022/04/21 09:30:24;;;;;;;9.25;3.40;;;15.40;65.80;;;;;;4957555;28;20078;-73
2022/04/21 09:32:57;;;;;;;9.45;4.30;;;15.30;65.50;;;;;;4958662;28;20561;-75
2022/04/21 09:35:28;;;;;;;7.22;3.97;;;15.10;66.30;;;;;;4956939;28;20030;-74
2022/04/21 09:37:56;;;;;;;8.85;3.90;;;15.10;66.80;;;;;;4956937;28;20033;-74
2022/04/21 09:40:25;;;;;;;8.02;3.55;;;15.10;66.90;;;;;;4954550;28;20035;-74
2022/04/21 09:42:59;;;;;;;7.78;4.22;;;15.20;67.30;;;;;;4954101;28;20062;-70
2022/04/21 09:48:33;;;;;;;7.20;4.03;;;15.40;66.60;;;;;;4956221;28;20042;-74
2022/04/21 09:51:12;;;;;;;9.45;3.72;;;15.40;66.60;;;;;;4957420;28;20593;-74
2022/04/21 09:54:00;;;;;;;9.65;4.75;;;15.80;66.00;;;;;;4959813;28;20833;-74
2022/04/21 09:56:33;;;;;;;7.28;4.28;;;16.20;65.10;;;;;;4954208;28;20035;-76
2022/04/21 09:59:04;;;;;;;9.48;3.70;;;16.70;63.60;;;;;;4957555;28;20033;-77
2022/04/21 10:01:30;;;;;;;7.88;3.85;;;17.00;63.00;;;;;;4952759;28;20477;-74
2022/04/21 10:03:57;;;;;;;6.57;3.67;;;17.00;62.80;;;;;;4956326;28;20398;-75
2022/04/21 10:06:23;;;;;;;6.30;4.15;;;16.80;62.80;;;;;;4954279;28;20820;-75
2022/04/21 10:08:50;;;;;;;6.97;4.10;;;16.70;63.50;;;;;;4954460;28;20050;-75
2022/04/21 10:11:23;;;;;;;5.90;3.92;;;16.80;62.50;;;;;;4958279;28;20148;-75
2022/04/21 10:13:52;;;;;;;11.05;4.40;;;16.80;62.50;;;;;;4956595;28;20206;-75
2022/04/21 10:16:17;;;;;;;10.13;4.05;;;16.70;63.00;;;;;;4952813;28;20058;-75
2022/04/21 10:18:47;;;;;;;7.90;4.30;;;16.70;63.70;;;;;;4950940;28;20126;-74
2022/04/21 10:21:18;;;;;;;9.77;4.63;;;16.60;63.70;;;;;;4955711;28;21085;-74
2022/04/21 10:23:44;;;;;;;6.88;4.35;;;16.40;64.40;;;;;;4955728;28;20042;-75
2022/04/21 10:26:10;;;;;;;8.57;4.28;;;16.20;64.50;;;;;;4950908;28;20469;-75
2022/04/21 10:28:43;;;;;;;8.82;4.20;;;16.20;65.30;;;;;;4958030;28;20033;-74
2022/04/21 10:31:29;;;;;;;7.68;4.25;;;16.30;65.50;;;;;;4953687;28;20632;-75
2022/04/21 10:34:05;;;;;;;8.30;4.35;;;16.20;65.50;;;;;;4953780;28;20037;-74
2022/04/21 10:36:41;;;;;;;8.70;4.00;;;16.10;66.20;;;;;;4948448;28;20177;-74
2022/04/21 10:39:09;;;;;;;9.98;5.03;;;16.00;66.90;;;;;;4953679;28;20786;-69
2022/04/21 10:41:36;;;;;;;7.85;4.90;;;15.80;66.90;;;;;;4959602;28;20047;-73
2022/04/21 10:44:04;;;;;;;8.57;4.70;;;15.70;67.50;;;;;;4959652;28;20711;-73
2022/04/21 10:46:30;;;;;;;8.13;4.90;;;15.60;67.70;;;;;;4958685;28;20038;-74
2022/04/21 10:48:58;;;;;;;10.05;4.32;;;15.40;68.10;;;;;;4957805;28;20106;-73
2022/04/21 10:57:17;;;;;;;14.18;6.82;;;14.80;70.00;;;;;;4957568;28;20034;-73
2022/04/21 11:00:16;;;;;;;9.02;5.70;;;14.60;71.00;;;;;;4955006;28;20096;-74
2022/04/21 11:02:46;;;;;;;9.10;6.38;;;14.50;70.80;;;;;;4931208;28;20109;-73
2022/04/21 11:05:28;;;;;;;9.77;6.13;;;14.30;71.60;;;;;;4958630;28;20156;-77
2022/04/21 11:07:56;;;;;;;8.65;5.80;;;14.10;71.80;;;;;;4954059;28;20049;-73
2022/04/21 11:10:39;;;;;;;10.82;5.97;;;14.10;72.50;;;;;;4956802;28;20103;-73
2022/04/21 11:13:19;;;;;;;10.48;5.97;;;14.10;72.60;;;;;;4961549;28;20106;-72
2022/04/21 11:15:45;;;;;;;15.15;6.75;;;14.10;73.00;;;;;;4961487;28;20117;-69
2022/04/21 11:18:12;;;;;;;11.63;6.07;;;14.20;72.80;;;;;;4961042;28;20144;-72
2022/04/21 11:20:40;;;;;;;11.27;5.78;;;14.10;72.50;;;;;;4957688;28;20034;-71
2022/04/21 11:23:44;;;;;;;9.68;5.40;;;14.10;73.00;;;;;;4939650;28;20031;-71
2022/04/21 11:26:11;;;;;;;13.43;6.15;;;14.00;72.80;;;;;;4960555;28;20067;-73
2022/04/21 11:28:43;;;;;;;14.05;6.72;;;14.00;72.80;;;;;;4957554;28;20312;-71
2022/04/21 11:31:08;;;;;;;10.98;5.70;;;13.80;73.00;;;;;;4960840;28;20050;-69
2022/04/21 11:33:35;;;;;;;9.63;5.72;;;13.80;73.70;;;;;;4961040;28;20073;-72
2022/04/21 11:36:04;;;;;;;11.27;6.53;;;13.90;74.00;;;;;;4959352;28;20846;-71
2022/04/21 11:38:34;;;;;;;10.73;5.35;;;13.90;72.90;;;;;;4958883;28;20101;-68
2022/04/21 11:41:04;;;;;;;9.65;5.75;;;13.90;72.90;;;;;;4956448;28;20035;-68
2022/04/21 11:43:30;;;;;;;7.90;6.10;;;14.00;72.20;;;;;;4956395;28;20050;-71
2022/04/21 11:46:01;;;;;;;8.63;5.22;;;14.10;71.80;;;;;;4942055;28;20146;-71
2022/04/21 11:48:39;;;;;;;9.15;5.82;;;14.10;71.90;;;;;;4959427;28;20112;-71
2022/04/21 11:51:09;;;;;;;14.27;6.10;;;14.40;71.70;;;;;;4954943;28;20035;-70
2022/04/21 11:53:36;;;;;;;9.23;4.65;;;14.60;70.10;;;;;;4960597;28;20057;-70
2022/04/21 11:56:04;;;;;;;8.07;5.50;;;14.80;69.40;;;;;;4957213;28;20536;-72
2022/04/21 11:58:35;;;;;;;11.55;5.72;;;15.00;69.50;;;;;;4943818;28;20038;-71
2022/04/21 12:06:39;;;;;;;10.13;5.80;;;16.50;62.80;;;;;;4956846;28;20056;-71
2022/04/21 12:09:15;;;;;;;13.00;6.38;;;16.60;62.20;;;;;;4943813;28;20042;-71
2022/04/21 12:11:42;;;;;;;10.82;5.90;;;16.40;62.00;;;;;;4959323;28;20034;-71
2022/04/21 12:14:09;;;;;;;11.05;5.55;;;16.20;63.20;;;;;;4959110;28;20046;-71
2022/04/21 12:17:00;;;;;;;8.23;6.18;;;16.00;63.40;;;;;;4961341;28;20027;-72
2022/04/21 12:19:39;;;;;;;10.00;6.55;;;15.60;64.30;;;;;;4945795;28;20085;-69
2022/04/21 12:22:09;;;;;;;11.18;6.30;;;15.20;65.80;;;;;;4959114;28;20026;-70
2022/04/21 12:24:54;;;;;;;8.63;5.75;;;14.80;67.40;;;;;;4958555;28;20036;-70
2022/04/21 12:27:36;;;;;;;11.68;6.50;;;14.60;68.30;;;;;;4955997;28;20153;-73
2022/04/21 12:30:13;;;;;;;9.85;6.47;;;14.70;68.20;;;;;;4955952;28;20031;-72
2022/04/21 12:32:40;;;;;;;9.57;6.43;;;14.80;67.60;;;;;;4954775;28;20186;-71
2022/04/21 12:35:08;;;;;;;9.55;6.53;;;15.00;67.60;;;;;;4959493;28;20054;-74
2022/04/21 12:37:35;;;;;;;12.80;7.20;;;15.10;67.00;;;;;;4953200;28;20046;-72
2022/04/21 12:40:04;;;;;;;11.35;7.00;;;15.30;66.20;;;;;;4958805;28;20038;-68
2022/04/21 12:42:31;;;;;;;10.98;6.00;;;15.30;65.80;;;;;;4958755;28;20250;-76
2022/04/21 12:44:57;;;;;;;8.63;5.47;;;15.40;66.40;;;;;;4957106;28;20035;-70
2022/04/21 12:47:23;;;;;;;7.80;5.88;;;15.50;65.50;;;;;;4955504;28;20098;-69
2022/04/21 12:50:09;;;;;;;9.85;6.03;;;15.40;65.30;;;;;;4952502;28;20039;-72
2022/04/21 12:52:44;;;;;;;14.10;6.28;;;15.30;65.70;;;;;;4954947;28;20034;-70
2022/04/21 12:55:26;;;;;;;8.63;6.32;;;15.20;66.10;;;;;;4958368;28;20038;-72
2022/04/21 12:58:05;;;;;;;10.80;5.68;;;15.20;66.40;;;;;;4954959;28;20673;-73
2022/04/21 13:00:36;;;;;;;10.90;5.68;;;15.40;66.00;;;;;;4957982;28;20117;-75
2022/04/21 13:03:03;;;;;;;9.95;5.72;;;15.50;65.50;;;;;;4958245;28;20034;-75
2022/04/21 13:05:29;;;;;;;7.75;5.10;;;15.70;65.20;;;;;;4958209;28;20038;-71
2022/04/21 13:07:54;;;;;;;12.05;6.38;;;15.90;64.00;;;;;;4954148;28;20031;-72
2022/04/21 13:10:21;;;;;;;7.18;5.05;;;15.90;63.50;;;;;;4959310;28;20038;-69
2022/04/21 13:12:48;;;;;;;7.72;5.70;;;15.90;63.90;;;;;;4956701;28;20652;-73
2022/04/21 13:15:14;;;;;;;10.38;5.38;;;15.80;64.20;;;;;;4959135;28;20042;-68
2022/04/21 13:17:40;;;;;;;8.60;5.47;;;15.90;64.00;;;;;;4956926;28;20117;-66
2022/04/21 13:20:07;;;;;;;7.88;5.35;;;16.00;64.20;;;;;;4956139;28;20043;-71
2022/04/21 13:22:33;;;;;;;7.03;5.07;;;16.20;63.60;;;;;;4941456;28;20030;-70
2022/04/21 13:24:58;;;;;;;9.38;5.35;;;16.20;63.30;;;;;;4951134;28;20038;-71
2022/04/21 13:27:26;;;;;;;11.80;5.45;;;16.10;63.40;;;;;;4957663;28;20077;-71
2022/04/21 13:29:55;;;;;;;7.68;4.72;;;16.00;64.20;;;;;;4946781;28;20548;-72
2022/04/21 13:35:07;;;;;;;6.95;4.50;;;15.70;64.70;;;;;;4956729;28;20039;-72
2022/04/21 13:37:33;;;;;;;8.43;4.70;;;15.40;65.40;;;;;;4952123;28;20026;-68
2022/04/21 13:39:58;;;;;;;9.13;4.53;;;15.20;66.40;;;;;;4959584;28;20041;-72
2022/04/21 13:42:24;;;;;;;7.25;4.55;;;15.10;66.50;;;;;;4953065;28;20108;-73
2022/04/21 13:44:51;;;;;;;7.22;4.50;;;15.00;67.10;;;;;;4952209;28;20041;-73
2022/04/21 13:47:18;;;;;;;7.38;4.00;;;14.80;67.80;;;;;;4954206;28;20031;-72
2022/04/21 13:49:46;;;;;;;7.07;4.53;;;14.80;68.60;;;;;;4953441;28;20050;-73